Time;durP1;ratioP1;P1;durP2;ratioP2;P2;SDS_P1;SDS_P2;PMS_P1;PMS_P2;Temp;Humidity;BMP_temperature;BMP_pressure;BME280_temperature;BME280_humidity;BME280_pressure;Samples;Min_cycle;Max_cycle;Signal;HPM_P1;HPM_P2
2022/09/18 00:02:23;;;;;;;3.08;0.77;;;;;;;10.83;82.53;101527.03;5035332;28;20060;-78
2022/09/18 00:04:49;;;;;;;5.57;0.82;;;;;;;10.82;82.92;101537.44;5036373;28;20033;-78
2022/09/18 00:07:15;;;;;;;2.03;0.43;;;;;;;10.82;83.05;101532.25;5040610;28;20103;-78
2022/09/18 00:09:40;;;;;;;3.88;0.90;;;;;;;10.78;83.08;101529.69;5035441;28;20095;-78
2022/09/18 00:12:06;;;;;;;3.85;0.77;;;;;;;10.76;83.55;101526.25;5035806;28;20419;-78
2022/09/18 00:14:31;;;;;;;3.65;0.80;;;;;;;10.76;83.47;101526.25;5053314;28;20029;-78
2022/09/18 00:16:56;;;;;;;4.20;0.70;;;;;;;10.78;83.49;101521.03;5040634;28;20059;-78
2022/09/18 00:19:22;;;;;;;2.55;0.70;;;;;;;10.78;83.40;101516.66;5051875;28;20024;-78
2022/09/18 00:21:49;;;;;;;3.03;0.70;;;;;;;10.78;83.60;101514.06;5047291;28;20075;-78
2022/09/18 00:24:18;;;;;;;2.88;0.65;;;;;;;10.80;83.70;101515.78;5043679;28;20033;-78
2022/09/18 00:26:45;;;;;;;4.25;0.70;;;;;;;10.80;83.54;101515.78;5044212;28;20083;-78
2022/09/18 00:29:11;;;;;;;4.03;0.68;;;;;;;10.80;83.76;101518.41;5054195;28;20039;-78
2022/09/18 00:31:37;;;;;;;3.20;0.77;;;;;;;10.80;83.64;101521.00;5054780;28;20028;-78
2022/09/18 00:34:06;;;;;;;2.50;0.60;;;;;;;10.80;83.97;101518.41;5037127;28;20041;-78
2022/09/18 00:36:32;;;;;;;3.50;0.68;;;;;;;10.81;84.08;101517.50;5034723;28;20025;-78
2022/09/18 00:38:58;;;;;;;4.63;0.80;;;;;;;10.82;83.92;101519.22;5047315;28;20025;-78
2022/09/18 00:41:30;;;;;;;3.25;0.70;;;;;;;10.82;83.77;101508.81;5052469;28;20400;-78
2022/09/18 00:44:28;;;;;;;4.03;0.80;;;;;;;10.82;83.36;101514.03;5041604;28;20041;-78
2022/09/18 00:46:59;;;;;;;3.85;0.90;;;;;;;10.81;83.99;101523.59;5052403;28;20104;-78
2022/09/18 00:49:26;;;;;;;3.40;0.80;;;;;;;10.81;84.17;101517.50;5053087;28;20040;-78
2022/09/18 00:51:55;;;;;;;2.50;0.70;;;;;;;10.80;84.45;101516.66;5054352;28;20029;-78
2022/09/18 00:54:27;;;;;;;2.85;0.80;;;;;;;10.80;84.29;101531.41;5041532;28;20117;-78
2022/09/18 00:56:56;;;;;;;2.25;0.80;;;;;;;10.81;84.25;101533.13;5041881;28;20033;-78
2022/09/18 00:59:24;;;;;;;4.70;0.95;;;;;;;10.80;84.58;101534.00;5039550;28;20020;-78
2022/09/18 01:01:50;;;;;;;4.93;1.40;;;;;;;10.80;84.16;101521.00;5048917;28;20033;-78
2022/09/18 01:04:15;;;;;;;2.95;0.80;;;;;;;10.80;84.50;101513.19;5039681;28;20044;-78
2022/09/18 01:06:50;;;;;;;2.83;0.90;;;;;;;10.77;84.59;101517.56;5042663;28;20092;-78
2022/09/18 01:09:27;;;;;;;2.90;0.98;;;;;;;10.76;85.16;101515.84;5039829;28;20060;-78
2022/09/18 01:12:15;;;;;;;3.17;1.00;;;;;;;10.76;84.54;101520.19;5049114;28;20385;-78
2022/09/18 01:15:23;;;;;;;2.38;0.63;;;;;;;10.77;84.72;101521.91;5040441;28;20499;-78
2022/09/18 01:18:13;;;;;;;3.35;0.75;;;;;;;10.77;84.56;101524.53;5039724;28;20052;-78
2022/09/18 01:20:51;;;;;;;4.05;1.00;;;;;;;10.75;85.24;101516.75;5037410;28;20033;-78
2022/09/18 01:23:42;;;;;;;2.65;0.68;;;;;;;10.77;85.03;101524.53;5044715;28;20047;-78
2022/09/18 01:26:16;;;;;;;2.85;0.70;;;;;;;10.78;85.21;101527.09;5047081;28;20043;-78
2022/09/18 01:28:47;;;;;;;2.67;0.75;;;;;;;10.78;85.21;101521.03;5038599;28;20446;-78
2022/09/18 01:31:23;;;;;;;2.47;0.70;;;;;;;10.78;85.01;101524.47;5051511;28;20056;-78
2022/09/18 01:33:56;;;;;;;2.63;0.70;;;;;;;10.80;85.14;101529.69;5040448;28;20040;-78
2022/09/18 01:36:27;;;;;;;3.05;0.77;;;;;;;10.78;85.13;101529.69;5044257;28;20123;-78
2022/09/18 01:38:59;;;;;;;2.17;0.70;;;;;;;10.79;85.31;101520.16;5044008;28;20021;-76
2022/09/18 01:41:27;;;;;;;3.42;0.73;;;;;;;10.80;85.75;101526.19;5038645;28;20044;-78
2022/09/18 01:44:02;;;;;;;4.45;0.90;;;;;;;10.79;85.41;101509.75;5042114;28;20025;-76
2022/09/18 01:46:28;;;;;;;4.00;0.70;;;;;;;10.80;85.30;101515.78;5045090;28;20111;-76
2022/09/18 01:49:05;;;;;;;2.50;0.70;;;;;;;10.78;85.28;101508.03;5052582;28;20047;-76
2022/09/18 01:51:39;;;;;;;3.65;0.90;;;;;;;10.78;85.66;101503.66;5047334;28;20051;-76
2022/09/18 01:54:12;;;;;;;2.83;0.70;;;;;;;10.78;85.57;101506.25;5051192;28;20116;-78
2022/09/18 01:56:45;;;;;;;4.38;0.70;;;;;;;10.78;85.31;101506.25;5034294;28;20033;-75
2022/09/18 01:59:17;;;;;;;1.23;0.55;;;;;;;10.77;85.37;101501.09;5033101;28;20530;-76
2022/09/18 02:01:44;;;;;;;2.17;0.70;;;;;;;10.76;85.54;101500.22;5033147;28;20044;-76
2022/09/18 02:04:16;;;;;;;1.90;0.70;;;;;;;10.77;85.20;101496.72;5045153;28;20472;-76
2022/09/18 02:06:46;;;;;;;;;;;;;;;10.77;83.82;101496.72;5033311;28;20045;-76
2022/09/18 02:09:12;;;;;;;2.40;0.93;;;;;;;10.75;85.46;101503.72;5033594;28;19916;-76
2022/09/18 02:11:43;;;;;;;4.45;0.60;;;;;;;10.74;85.48;101504.63;5032642;28;20029;-76
2022/09/18 02:14:15;;;;;;;;;;;;;;;10.78;83.71;101508.88;5048616;28;20029;-76
2022/09/18 02:16:44;;;;;;;2.40;0.40;;;;;;;10.77;85.50;101501.09;5034494;28;20287;-76
2022/09/18 02:19:36;;;;;;;2.40;0.50;;;;;;;10.76;85.06;101492.41;5047501;28;20135;-76
2022/09/18 02:22:06;;;;;;;3.60;0.55;;;;;;;10.75;85.62;101495.94;5039919;28;20037;-76
2022/09/18 02:24:35;;;;;;;3.30;0.60;;;;;;;10.75;86.03;101492.44;5049146;28;20425;-76
2022/09/18 02:27:03;;;;;;;4.13;0.70;;;;;;;10.75;85.73;101493.31;5041001;28;20029;-76
2022/09/18 02:29:29;;;;;;;4.22;0.80;;;;;;;10.76;86.03;101489.81;5041262;28;20029;-76
2022/09/18 02:31:54;;;;;;;2.47;0.68;;;;;;;10.75;85.89;101488.13;5039148;28;20099;-76
2022/09/18 02:34:20;;;;;;;1.98;0.90;;;;;;;10.76;86.06;101492.41;5046497;28;20025;-76
2022/09/18 02:37:09;;;;;;;2.33;0.85;;;;;;;10.76;85.85;101494.16;5047469;28;20101;-76
2022/09/18 02:39:47;;;;;;;4.43;1.83;;;;;;;10.75;86.13;101493.31;5041140;28;20033;-76
2022/09/18 02:42:53;;;;;;;3.92;1.55;;;;;;;10.75;86.03;101480.31;5035355;28;20044;-76
2022/09/18 02:45:45;;;;;;;3.15;1.23;;;;;;;10.75;86.38;101485.50;5040826;28;20118;-76
2022/09/18 02:48:23;;;;;;;4.55;1.23;;;;;;;10.75;86.48;101482.03;5035784;28;20045;-76
2022/09/18 02:51:17;;;;;;;3.67;1.23;;;;;;;10.74;86.37;101481.19;5016317;28;20033;-76
2022/09/18 02:54:05;;;;;;;4.18;1.42;;;;;;;10.74;86.56;101480.31;5034527;28;20238;-76
2022/09/18 02:56:46;;;;;;;3.08;1.40;;;;;;;10.73;86.63;101487.28;5034778;28;20534;-76
2022/09/18 02:59:20;;;;;;;3.65;1.33;;;;;;;10.74;87.00;101480.31;5043377;28;20025;-76
2022/09/18 03:01:46;;;;;;;3.88;1.40;;;;;;;10.76;86.62;101486.34;5042392;28;20067;-76
2022/09/18 03:04:17;;;;;;;5.45;1.63;;;;;;;10.75;87.04;101474.22;5047914;28;20037;-76
2022/09/18 03:06:43;;;;;;;;;;;;;;;10.78;84.96;101477.63;5036101;28;20071;-76
2022/09/18 03:09:08;;;;;;;5.30;1.60;;;;;;;10.76;86.33;101473.34;5043222;28;20427;-76
2022/09/18 03:11:33;;;;;;;3.17;1.30;;;;;;;10.74;86.60;101470.78;5038392;28;20021;-76
2022/09/18 03:13:58;;;;;;;3.30;1.40;;;;;;;10.73;86.61;101465.59;5044213;28;20411;-76
2022/09/18 03:16:24;;;;;;;4.30;1.50;;;;;;;10.72;86.72;101469.06;5033555;28;20047;-76
2022/09/18 03:18:49;;;;;;;2.92;1.30;;;;;;;10.70;86.74;101469.09;5032731;28;20516;-76
2022/09/18 03:21:14;;;;;;;4.20;1.60;;;;;;;10.70;86.96;101463.03;5043995;28;20391;-76
2022/09/18 03:23:39;;;;;;;5.75;1.27;;;;;;;10.69;86.80;101467.38;5045214;28;20032;-76
2022/09/18 03:26:05;;;;;;;2.35;1.02;;;;;;;10.70;86.67;101470.84;5035861;28;20480;-76
2022/09/18 03:28:31;;;;;;;5.22;1.30;;;;;;;10.71;86.97;101469.94;5036657;28;20107;-76
2022/09/18 03:30:56;;;;;;;3.45;1.00;;;;;;;10.71;86.81;101463.03;5032370;28;20033;-76
2022/09/18 03:33:21;;;;;;;6.10;1.60;;;;;;;10.72;86.82;101464.75;5038498;28;20083;-76
2022/09/18 03:35:46;;;;;;;2.72;0.85;;;;;;;10.73;86.90;101462.97;5035175;28;20104;-76
2022/09/18 03:38:12;;;;;;;2.67;0.93;;;;;;;10.74;86.91;101464.69;5037989;28;20033;-78
2022/09/18 03:40:37;;;;;;;3.53;1.00;;;;;;;10.75;86.89;101459.50;5051747;28;20029;-76
2022/09/18 03:43:02;;;;;;;4.30;1.00;;;;;;;10.76;86.85;101453.38;5052330;28;20043;-76
2022/09/18 03:45:28;;;;;;;4.75;1.00;;;;;;;10.76;86.66;101445.56;5038719;28;20037;-76
2022/09/18 03:47:53;;;;;;;4.10;1.13;;;;;;;10.76;86.58;101462.94;5040352;28;20435;-76
2022/09/18 03:50:18;;;;;;;4.38;1.10;;;;;;;10.76;86.80;101466.38;5038151;28;20025;-76
2022/09/18 03:52:43;;;;;;;3.05;0.90;;;;;;;10.76;86.88;101455.13;5035648;28;20022;-76
2022/09/18 03:55:09;;;;;;;3.05;0.70;;;;;;;10.76;87.00;101461.19;5035586;28;20029;-76
2022/09/18 03:57:34;;;;;;;4.03;0.80;;;;;;;10.77;86.90;101457.69;5035768;28;20033;-76
2022/09/18 04:00:00;;;;;;;2.22;0.77;;;;;;;10.78;87.03;101462.00;5055374;28;20063;-76
2022/09/18 04:02:25;;;;;;;3.90;0.88;;;;;;;10.78;86.83;101449.00;5033750;28;20041;-76
2022/09/18 04:04:52;;;;;;;3.53;0.73;;;;;;;10.81;86.69;101439.44;5045186;28;20037;-76
2022/09/18 04:07:18;;;;;;;4.90;0.60;;;;;;;10.81;86.95;101440.31;5039601;28;20049;-76
2022/09/18 04:09:44;;;;;;;5.95;1.00;;;;;;;10.82;86.81;101441.16;5042880;28;20029;-76
2022/09/18 04:12:09;;;;;;;2.42;0.80;;;;;;;10.81;86.82;101437.69;5042249;28;20049;-76
2022/09/18 04:14:34;;;;;;;2.53;0.65;;;;;;;10.82;87.09;101435.94;5052147;28;20447;-76
2022/09/18 04:16:59;;;;;;;3.90;0.98;;;;;;;10.82;86.94;101438.53;5042722;28;20025;-76
2022/09/18 04:19:25;;;;;;;3.08;0.98;;;;;;;10.84;86.77;101449.78;5038610;28;20021;-76
2022/09/18 04:21:50;;;;;;;2.67;0.70;;;;;;;10.84;86.95;101448.06;5045198;28;20033;-76
2022/09/18 04:24:15;;;;;;;5.00;0.80;;;;;;;10.84;86.91;101455.88;5035416;28;20037;-76
2022/09/18 04:26:40;;;;;;;3.10;0.60;;;;;;;10.83;86.90;101454.16;5043507;28;20469;-76
2022/09/18 04:29:06;;;;;;;4.80;1.10;;;;;;;10.84;86.85;101449.78;5043676;28;20031;-76
2022/09/18 04:31:31;;;;;;;4.07;1.00;;;;;;;10.84;86.95;101450.66;5041912;28;20094;-76
2022/09/18 04:33:56;;;;;;;2.47;0.70;;;;;;;10.84;86.95;101450.66;5048242;28;20039;-77
2022/09/18 04:36:22;;;;;;;3.75;0.82;;;;;;;10.85;86.75;101449.75;5034494;28;20033;-76
2022/09/18 04:38:47;;;;;;;3.70;0.88;;;;;;;10.87;86.95;101449.75;5037997;28;20080;-76
2022/09/18 04:41:12;;;;;;;3.33;1.05;;;;;;;10.87;86.83;101449.75;5037713;28;20041;-76
2022/09/18 04:43:37;;;;;;;3.45;0.65;;;;;;;10.88;86.86;101451.47;5040219;28;20437;-77
2022/09/18 04:46:03;;;;;;;1.90;0.45;;;;;;;10.88;87.07;101447.09;5037807;28;20029;-76
2022/09/18 04:48:28;;;;;;;4.85;0.80;;;;;;;10.87;86.76;101448.00;5043176;28;20039;-76
2022/09/18 04:50:53;;;;;;;1.95;0.60;;;;;;;10.87;87.23;101450.59;5035974;28;20025;-76
2022/09/18 04:53:19;;;;;;;2.25;0.80;;;;;;;10.89;87.08;101450.59;5052745;28;20079;-76
2022/09/18 04:55:46;;;;;;;2.80;0.70;;;;;;;10.89;87.08;101446.22;5047019;28;20029;-76
2022/09/18 04:58:13;;;;;;;2.70;0.68;;;;;;;10.93;87.01;101454.84;5043554;28;20029;-76
2022/09/18 05:00:38;;;;;;;3.17;0.75;;;;;;;10.93;87.14;101454.84;5048399;28;20021;-76
2022/09/18 05:03:05;;;;;;;2.25;0.60;;;;;;;10.93;86.77;101444.44;5038821;28;20029;-76
2022/09/18 05:05:30;;;;;;;3.28;0.85;;;;;;;10.94;86.86;101435.72;5052068;28;20472;-76
2022/09/18 05:08:02;;;;;;;4.20;0.65;;;;;;;10.93;86.76;101440.09;5043714;28;20040;-76
2022/09/18 05:10:28;;;;;;;4.28;0.60;;;;;;;10.92;86.85;101430.56;5047152;28;20148;-76
2022/09/18 05:12:53;;;;;;;2.85;0.60;;;;;;;10.90;86.68;101439.28;5037459;28;20112;-76
2022/09/18 05:15:20;;;;;;;3.88;0.75;;;;;;;10.90;86.63;101447.09;5042301;28;20108;-76
2022/09/18 05:17:46;;;;;;;2.50;0.50;;;;;;;10.89;86.52;101443.63;5045756;28;20321;-76
2022/09/18 05:20:11;;;;;;;4.78;0.85;;;;;;;10.90;86.80;101444.50;5043899;28;20268;-76
2022/09/18 05:22:37;;;;;;;4.20;0.68;;;;;;;10.90;86.72;101450.53;5041965;28;20045;-76
2022/09/18 05:25:03;;;;;;;2.60;0.60;;;;;;;10.89;86.49;101454.03;5048649;28;20033;-76
2022/09/18 05:27:28;;;;;;;4.50;0.60;;;;;;;10.89;86.58;101447.97;5039676;28;20075;-76
2022/09/18 05:29:54;;;;;;;3.38;0.60;;;;;;;10.88;86.52;101452.31;5037563;28;20057;-76
2022/09/18 05:32:19;;;;;;;2.53;0.65;;;;;;;10.87;86.52;101436.72;5033684;28;20473;-76
2022/09/18 05:34:48;;;;;;;4.57;0.75;;;;;;;10.86;86.64;101445.44;5034843;28;20021;-77
2022/09/18 05:37:14;;;;;;;6.57;0.70;;;;;;;10.87;86.56;101442.78;5046712;28;20498;-76
2022/09/18 05:39:40;;;;;;;5.95;0.65;;;;;;;10.87;86.49;101448.00;5051034;28;20016;-76
2022/09/18 05:42:06;;;;;;;2.30;0.60;;;;;;;10.87;86.27;101445.38;5025398;28;20476;-76
2022/09/18 05:44:31;;;;;;;2.53;0.50;;;;;;;10.87;86.17;101439.34;5037566;28;20028;-76
2022/09/18 05:46:57;;;;;;;2.45;0.50;;;;;;;10.87;85.98;101439.34;5052456;28;20518;-76
2022/09/18 05:49:22;;;;;;;3.25;0.60;;;;;;;10.84;85.93;101444.59;5033376;28;20423;-76
2022/09/18 05:51:47;;;;;;;2.65;0.50;;;;;;;10.85;85.89;101451.50;5032526;28;20022;-76
2022/09/18 05:54:14;;;;;;;1.77;0.40;;;;;;;10.84;85.87;101448.06;5039615;28;20463;-76
2022/09/18 05:56:39;;;;;;;4.18;0.68;;;;;;;10.87;85.85;101460.16;5045771;28;20051;-76
2022/09/18 05:59:04;;;;;;;2.28;0.50;;;;;;;10.85;86.06;101460.16;5038211;28;20025;-76
2022/09/18 06:01:30;;;;;;;3.08;0.80;;;;;;;10.88;86.26;101464.47;5042005;28;20025;-76
2022/09/18 06:03:55;;;;;;;1.95;0.50;;;;;;;10.90;86.33;101454.91;5037451;28;20020;-76
2022/09/18 06:06:21;;;;;;;3.05;0.43;;;;;;;10.90;86.04;101457.50;5051721;28;20056;-76
2022/09/18 06:08:46;;;;;;;3.42;0.70;;;;;;;10.90;85.76;101457.50;5046527;28;20025;-76
2022/09/18 06:11:12;;;;;;;2.08;0.50;;;;;;;10.88;85.82;101459.28;5032448;28;20040;-76
2022/09/18 06:13:37;;;;;;;2.47;0.43;;;;;;;10.87;86.32;101463.59;5049825;28;20051;-76
2022/09/18 06:16:02;;;;;;;3.63;0.57;;;;;;;10.88;86.22;101451.47;5022686;28;20026;-75
2022/09/18 06:18:28;;;;;;;2.60;0.45;;;;;;;10.89;85.98;101463.59;5032598;28;20108;-76
2022/09/18 06:20:55;;;;;;;1.92;0.43;;;;;;;10.91;86.14;101441.00;5047738;28;20403;-76
2022/09/18 06:23:25;;;;;;;3.20;0.60;;;;;;;10.93;86.18;101440.09;5042988;28;20067;-76
2022/09/18 06:26:02;;;;;;;3.45;0.60;;;;;;;10.98;86.21;101440.00;5035101;28;20044;-76
2022/09/18 06:28:29;;;;;;;3.65;0.45;;;;;;;11.03;86.48;101427.75;5046890;28;20052;-76
2022/09/18 06:30:56;;;;;;;5.85;0.70;;;;;;;11.07;86.49;101428.56;5039671;28;20098;-76
2022/09/18 06:33:22;;;;;;;6.40;0.93;;;;;;;11.11;85.95;101414.59;5048788;28;20400;-76
2022/09/18 06:35:48;;;;;;;3.38;0.50;;;;;;;11.16;86.34;101420.59;5043389;28;20037;-76
2022/09/18 06:38:13;;;;;;;2.28;0.47;;;;;;;11.21;86.04;101423.94;5040180;28;20079;-76
2022/09/18 06:40:38;;;;;;;2.72;0.50;;;;;;;11.26;85.93;101426.47;5044062;28;20045;-76
2022/09/18 06:43:04;;;;;;;1.13;0.40;;;;;;;11.31;85.83;101429.84;5035345;28;20039;-76
2022/09/18 06:45:30;;;;;;;2.50;0.50;;;;;;;11.35;85.84;101426.28;5047755;28;20031;-76
2022/09/18 06:48:00;;;;;;;4.65;0.70;;;;;;;11.39;85.85;101429.69;5048213;28;20074;-76
2022/09/18 06:50:26;;;;;;;4.85;0.50;;;;;;;11.42;85.68;101428.78;5026802;28;20321;-76
2022/09/18 06:52:51;;;;;;;3.97;0.68;;;;;;;11.42;85.65;101432.22;5052585;28;20154;-76
2022/09/18 06:55:17;;;;;;;4.22;0.50;;;;;;;11.42;85.49;101437.44;5024848;28;20029;-76
2022/09/18 06:57:53;;;;;;;4.03;0.82;;;;;;;11.42;85.39;101455.69;5051667;28;20025;-76
2022/09/18 07:00:18;;;;;;;2.83;0.63;;;;;;;11.40;85.64;101444.44;5049660;28;20017;-76
2022/09/18 07:02:44;;;;;;;2.40;0.70;;;;;;;11.39;85.60;101442.72;5033434;28;20028;-76
2022/09/18 07:05:09;;;;;;;3.65;0.50;;;;;;;11.38;85.73;101439.25;5043852;28;20017;-76
2022/09/18 07:07:34;;;;;;;3.83;0.50;;;;;;;11.38;85.50;101436.66;5045882;28;20389;-76
2022/09/18 07:10:00;;;;;;;2.53;0.43;;;;;;;11.35;85.33;101434.09;5042028;28;20032;-76
2022/09/18 07:12:28;;;;;;;3.95;0.63;;;;;;;11.33;85.69;101438.47;5054110;28;20083;-79
2022/09/18 07:14:53;;;;;;;3.67;0.55;;;;;;;11.34;85.92;101429.78;5042816;28;20026;-76
2022/09/18 07:17:18;;;;;;;2.38;0.60;;;;;;;11.35;85.89;101439.31;5039505;28;20086;-76
2022/09/18 07:19:43;;;;;;;1.80;0.60;;;;;;;11.37;86.13;101447.97;5050746;28;20104;-76
2022/09/18 07:22:09;;;;;;;5.57;1.00;;;;;;;11.33;85.79;101443.69;5056169;28;20025;-76
2022/09/18 07:24:35;;;;;;;2.28;0.50;;;;;;;11.31;86.42;101442.84;5047354;28;20106;-76
2022/09/18 07:27:01;;;;;;;2.35;0.50;;;;;;;11.31;86.31;101439.41;5052938;28;20025;-76
2022/09/18 07:29:26;;;;;;;3.67;0.50;;;;;;;11.32;86.83;101433.31;5035863;28;20021;-76
2022/09/18 07:31:51;;;;;;;3.40;0.70;;;;;;;11.34;87.12;101437.59;5036355;28;20033;-76
2022/09/18 07:34:16;;;;;;;2.20;0.80;;;;;;;11.37;87.05;101437.53;5041081;28;20063;-76
2022/09/18 07:36:42;;;;;;;3.85;0.60;;;;;;;11.38;86.67;101426.22;5036124;28;20189;-76
2022/09/18 07:39:07;;;;;;;1.08;0.52;;;;;;;11.42;86.77;101424.41;5049203;28;20103;-76
2022/09/18 07:41:32;;;;;;;1.88;0.63;;;;;;;11.46;86.95;101422.59;5045332;28;20388;-76
2022/09/18 07:43:58;;;;;;;4.25;0.70;;;;;;;11.50;86.77;101417.31;5052994;28;20477;-76
2022/09/18 07:46:23;;;;;;;3.17;0.70;;;;;;;11.56;86.61;101411.13;5048928;28;20025;-76
2022/09/18 07:48:48;;;;;;;3.05;1.00;;;;;;;11.62;87.17;101418.78;5040263;28;20037;-76
2022/09/18 07:51:14;;;;;;;2.45;0.60;;;;;;;11.67;87.09;101411.75;5044075;28;20494;-76
2022/09/18 07:53:40;;;;;;;4.65;0.90;;;;;;;11.72;87.08;101413.41;5039649;28;20418;-76
2022/09/18 07:56:10;;;;;;;3.83;0.98;;;;;;;11.76;87.46;101409.84;5047828;28;20511;-76
2022/09/18 07:58:36;;;;;;;5.68;0.90;;;;;;;11.77;87.12;101412.41;5042070;28;20033;-76
2022/09/18 08:01:02;;;;;;;3.95;0.85;;;;;;;11.81;87.17;101413.19;5044630;28;20033;-76
2022/09/18 08:03:28;;;;;;;3.63;1.00;;;;;;;11.83;87.02;101417.50;5048099;28;20055;-76
2022/09/18 08:05:54;;;;;;;4.53;0.80;;;;;;;11.85;86.84;101420.06;5037924;28;20107;-76
2022/09/18 08:08:19;;;;;;;4.78;1.23;;;;;;;11.85;86.52;101420.06;5044767;28;20424;-76
2022/09/18 08:10:45;;;;;;;2.40;0.85;;;;;;;11.83;86.70;101427.06;5034917;28;20025;-76
2022/09/18 08:13:11;;;;;;;5.60;1.00;;;;;;;11.84;87.07;101423.56;5035442;28;20026;-76
2022/09/18 08:15:39;;;;;;;4.90;1.10;;;;;;;11.84;87.21;101418.34;5051688;28;20048;-76
2022/09/18 08:18:06;;;;;;;3.70;1.25;;;;;;;11.85;87.04;101427.88;5047462;28;20071;-76
2022/09/18 08:20:34;;;;;;;6.32;1.40;;;;;;;11.85;87.07;101430.50;5042147;28;20086;-77
2022/09/18 08:23:05;;;;;;;3.10;1.30;;;;;;;11.86;87.18;101437.41;5042768;28;20033;-76
2022/09/18 08:25:31;;;;;;;5.07;1.40;;;;;;;11.89;87.07;101426.94;5036021;28;20048;-76
2022/09/18 08:28:00;;;;;;;4.93;1.38;;;;;;;11.94;87.41;101419.88;5043471;28;20033;-76
2022/09/18 08:30:26;;;;;;;3.30;1.40;;;;;;;11.99;87.67;101425.84;5043031;28;20052;-76
2022/09/18 08:32:56;;;;;;;3.47;1.48;;;;;;;12.06;87.98;101423.13;5041260;28;20634;-76
2022/09/18 08:35:21;;;;;;;2.40;1.17;;;;;;;12.13;88.04;101424.69;5035845;28;20037;-76
2022/09/18 08:37:47;;;;;;;6.05;1.88;;;;;;;12.19;87.70;101416.72;5037471;28;20032;-76
2022/09/18 08:40:14;;;;;;;6.82;1.70;;;;;;;12.27;87.76;101422.63;5037882;28;20032;-76
2022/09/18 08:42:43;;;;;;;4.47;1.30;;;;;;;12.35;87.63;101418.97;5045374;28;20021;-76
2022/09/18 08:45:15;;;;;;;6.57;1.52;;;;;;;12.42;87.48;101415.34;5040326;28;20039;-77
2022/09/18 08:47:52;;;;;;;3.95;1.63;;;;;;;12.47;87.46;101412.59;5039903;28;20036;-76
2022/09/18 08:50:29;;;;;;;4.72;1.40;;;;;;;12.54;87.19;101414.19;5045476;28;20201;-76
2022/09/18 08:53:04;;;;;;;6.05;1.70;;;;;;;12.55;86.45;101411.53;5043031;28;20025;-76
2022/09/18 08:55:35;;;;;;;3.47;1.33;;;;;;;12.62;86.93;101419.22;5047017;28;20388;-76
2022/09/18 08:58:12;;;;;;;4.20;1.43;;;;;;;12.65;87.11;101411.28;5043475;28;20116;-76
2022/09/18 09:00:44;;;;;;;3.70;1.27;;;;;;;12.67;86.88;101412.97;5044257;28;20039;-76
2022/09/18 09:03:16;;;;;;;3.17;1.10;;;;;;;12.68;85.83;101413.81;5043945;28;20029;-77
2022/09/18 09:05:51;;;;;;;3.03;1.05;;;;;;;12.72;86.36;101399.78;5040940;28;20503;-77
2022/09/18 09:08:33;;;;;;;2.28;0.80;;;;;;;12.79;85.39;101398.75;5038792;28;20132;-77
2022/09/18 09:11:07;;;;;;;4.05;0.90;;;;;;;12.86;85.95;101394.22;5041568;28;20037;-77
2022/09/18 09:13:48;;;;;;;5.78;1.10;;;;;;;12.92;86.03;101401.03;5039755;28;20037;-77
2022/09/18 09:16:17;;;;;;;3.75;0.85;;;;;;;12.96;85.49;101405.28;5040802;28;20032;-77
2022/09/18 09:19:16;;;;;;;5.22;1.27;;;;;;;12.93;84.95;101406.19;5024245;28;20361;-77
2022/09/18 09:22:16;;;;;;;4.15;0.68;;;;;;;12.90;84.60;101406.28;5042657;28;20112;-77
2022/09/18 09:25:06;;;;;;;5.05;0.98;;;;;;;12.82;84.80;101411.69;5024307;28;20672;-77
2022/09/18 09:27:37;;;;;;;3.38;0.70;;;;;;;12.77;84.86;101412.72;5036935;28;20115;-77
2022/09/18 09:30:13;;;;;;;3.38;0.80;;;;;;;12.74;85.54;101405.84;5042639;28;20416;-77
2022/09/18 09:32:54;;;;;;;4.55;0.82;;;;;;;12.73;85.95;101404.13;5043846;28;20559;-77
2022/09/18 09:35:25;;;;;;;4.70;0.80;;;;;;;12.77;85.95;101405.75;5044780;28;20101;-77
2022/09/18 09:37:51;;;;;;;2.58;0.70;;;;;;;12.78;85.47;101407.47;5037776;28;20108;-77
2022/09/18 09:40:31;;;;;;;3.72;0.80;;;;;;;12.78;85.29;101404.88;5031934;28;20043;-77
2022/09/18 09:43:21;;;;;;;3.08;0.95;;;;;;;12.79;85.37;101403.97;5036182;28;20032;-77
2022/09/18 09:45:49;;;;;;;3.67;0.68;;;;;;;12.80;85.36;101399.59;5037888;28;20083;-77
2022/09/18 09:48:46;;;;;;;3.00;0.63;;;;;;;12.82;85.54;101406.47;5033748;28;20430;-77
2022/09/18 09:51:42;;;;;;;1.60;0.60;;;;;;;12.87;85.43;101403.78;5040405;28;20461;-77
2022/09/18 09:54:10;;;;;;;2.17;0.60;;;;;;;12.87;85.30;101396.78;5037968;28;20039;-77
2022/09/18 09:56:38;;;;;;;3.03;0.52;;;;;;;12.89;84.34;101384.53;5023130;28;20028;-77
2022/09/18 09:59:30;;;;;;;3.30;0.60;;;;;;;12.89;84.48;101389.75;5034578;28;20578;-77
2022/09/18 10:02:27;;;;;;;3.97;0.60;;;;;;;12.86;83.11;101374.16;5036838;28;20056;-77
2022/09/18 10:05:02;;;;;;;4.50;0.60;;;;;;;12.90;83.92;101374.94;5041472;28;20522;-77
2022/09/18 10:07:36;;;;;;;2.90;0.50;;;;;;;12.92;82.01;101373.16;5038679;28;20131;-78
2022/09/18 10:10:26;;;;;;;2.30;0.50;;;;;;;12.98;82.51;101375.59;5038076;28;20029;-77
2022/09/18 10:12:59;;;;;;;1.67;0.50;;;;;;;13.02;82.19;101368.53;5036913;28;20447;-77
2022/09/18 10:15:29;;;;;;;1.65;0.60;;;;;;;13.04;80.37;101369.34;5037788;28;20036;-77
2022/09/18 10:18:00;;;;;;;2.00;0.32;;;;;;;13.12;80.60;101364.78;5023604;28;20436;-77
2022/09/18 10:20:31;;;;;;;3.08;0.50;;;;;;;13.21;81.22;101368.88;5038323;28;20040;-77
2022/09/18 10:23:19;;;;;;;2.40;0.40;;;;;;;13.29;80.74;101369.50;5023793;28;20366;-77
2022/09/18 10:25:53;;;;;;;3.00;0.70;;;;;;;13.34;80.47;101377.22;5039517;28;20060;-77
2022/09/18 10:28:20;;;;;;;1.25;0.43;;;;;;;13.38;78.94;101385.84;5038150;28;20071;-78
2022/09/18 10:31:02;;;;;;;3.47;0.40;;;;;;;13.36;80.56;101375.41;5038899;28;20033;-78
2022/09/18 10:33:32;;;;;;;2.25;0.40;;;;;;;13.38;79.85;101381.47;5035936;28;20029;-77
2022/09/18 10:36:08;;;;;;;0.98;0.30;;;;;;;13.41;79.80;101385.78;5041344;28;20028;-77
2022/09/18 10:38:33;;;;;;;3.65;0.73;;;;;;;13.39;78.05;101391.00;5038731;28;20036;-78
2022/09/18 10:41:16;;;;;;;4.45;0.60;;;;;;;13.32;79.44;101382.50;5041466;28;20017;-78
2022/09/18 10:44:04;;;;;;;2.03;0.32;;;;;;;13.30;78.42;101389.53;5035369;28;20059;-77
2022/09/18 10:46:33;;;;;;;1.45;0.40;;;;;;;13.32;78.60;101386.88;5036763;28;20036;-77
2022/09/18 10:49:13;;;;;;;2.90;0.70;;;;;;;13.33;77.42;101393.78;5017839;28;20044;-77
2022/09/18 10:51:39;;;;;;;4.03;0.40;;;;;;;13.24;77.07;101396.69;5037739;28;20029;-77
2022/09/18 10:54:16;;;;;;;4.57;0.70;;;;;;;13.14;78.85;101398.69;5041047;28;20036;-77
2022/09/18 10:56:41;;;;;;;2.28;0.50;;;;;;;13.04;79.19;101413.75;5037543;28;20460;-78
2022/09/18 10:59:25;;;;;;;3.08;0.38;;;;;;;12.90;79.39;101409.75;5017261;28;20032;-77
2022/09/18 11:01:56;;;;;;;2.47;0.40;;;;;;;12.70;77.87;101414.63;5035009;28;20028;-77
2022/09/18 11:04:22;;;;;;;0.70;0.20;;;;;;;12.55;79.83;101401.06;5038111;28;20072;-77
2022/09/18 11:06:47;;;;;;;0.17;0.17;;;;;;;12.51;80.22;101404.66;5037053;28;20150;-77
2022/09/18 11:09:18;;;;;;;1.55;0.30;;;;;;;12.54;80.50;101390.69;5037377;28;20423;-77
2022/09/18 11:11:50;;;;;;;1.80;0.40;;;;;;;12.57;81.30;101399.28;5033722;28;20962;-76
2022/09/18 11:14:20;;;;;;;1.17;0.38;;;;;;;12.59;81.39;101397.50;5034336;28;20472;-77
2022/09/18 11:16:50;;;;;;;0.80;0.30;;;;;;;12.66;82.48;101394.72;5037547;28;20035;-77
2022/09/18 11:19:22;;;;;;;1.10;0.30;;;;;;;12.74;82.43;101400.63;5037523;28;20028;-77
2022/09/18 11:21:50;;;;;;;2.40;0.43;;;;;;;12.81;82.25;101394.31;5038438;28;20043;-77
2022/09/18 11:24:27;;;;;;;2.92;0.60;;;;;;;12.85;80.37;101388.13;5036071;28;20689;-77
2022/09/18 11:27:17;;;;;;;2.72;0.50;;;;;;;12.86;81.09;101389.00;5032779;28;20029;-77
2022/09/18 11:29:43;;;;;;;2.40;0.45;;;;;;;12.84;80.16;101385.56;5036201;28;20124;-77
2022/09/18 11:32:25;;;;;;;2.47;0.50;;;;;;;12.83;81.07;101386.47;5041509;28;20100;-77
2022/09/18 11:35:00;;;;;;;2.38;0.60;;;;;;;12.81;80.78;101391.69;5043034;28;20033;-77
2022/09/18 11:37:38;;;;;;;1.02;0.35;;;;;;;12.79;80.77;101403.09;5021242;28;20025;-77
2022/09/18 11:40:07;;;;;;;2.67;0.52;;;;;;;12.75;80.20;101391.88;5038880;28;20405;-77
2022/09/18 11:42:41;;;;;;;2.30;0.40;;;;;;;12.74;80.78;101390.16;5041618;28;20033;-77